createdAt,value
2022-11-29T00:01:19.099Z,1.20
2022-11-29T00:03:49.033Z,2.33
2022-11-29T00:06:18.697Z,1.63
2022-11-29T00:08:47.620Z,2.25
2022-11-29T00:11:37.098Z,1.60
2022-11-29T00:14:05.690Z,1.92
2022-11-29T00:16:33.973Z,1.52
2022-11-29T00:19:03.663Z,1.05
2022-11-29T00:21:31.973Z,1.50
2022-11-29T00:24:00.240Z,1.08
2022-11-29T00:26:28.435Z,1.85
2022-11-29T00:28:56.674Z,1.50
2022-11-29T00:31:25.817Z,1.77
2022-11-29T00:33:54.184Z,1.70
2022-11-29T00:36:23.807Z,1.75
2022-11-29T00:38:52.136Z,1.25
2022-11-29T00:41:20.577Z,2.10
2022-11-29T00:43:48.897Z,1.30
2022-11-29T00:46:17.263Z,1.80
2022-11-29T00:48:45.728Z,1.80
2022-11-29T00:51:14.052Z,1.77
2022-11-29T00:53:43.648Z,1.92
2022-11-29T00:56:12.163Z,1.85
2022-11-29T00:58:42.634Z,1.23
2022-11-29T01:01:11.584Z,1.35
2022-11-29T01:03:39.929Z,1.90
2022-11-29T01:06:09.203Z,2.05
2022-11-29T01:08:37.705Z,2.63
2022-11-29T01:11:09.029Z,2.00
2022-11-29T01:13:37.516Z,1.30
2022-11-29T01:16:06.417Z,1.17
2022-11-29T01:18:35.069Z,1.23
2022-11-29T01:21:04.387Z,1.90
2022-11-29T01:23:32.779Z,1.33
2022-11-29T01:26:01.733Z,1.85
2022-11-29T01:28:31.782Z,1.13
2022-11-29T01:31:00.161Z,1.30
2022-11-29T01:33:28.791Z,1.13
2022-11-29T01:35:57.204Z,1.17
2022-11-29T01:38:25.638Z,1.88
2022-11-29T01:41:01.469Z,1.70
2022-11-29T01:43:53.820Z,0.90
2022-11-29T01:46:23.468Z,1.60
2022-11-29T01:48:53.093Z,3.03
2022-11-29T01:51:21.462Z,1.80
2022-11-29T01:53:49.781Z,1.48
2022-11-29T01:56:18.225Z,1.73
2022-11-29T01:58:46.921Z,2.47
2022-11-29T02:01:16.202Z,2.00
2022-11-29T02:03:45.908Z,1.45
2022-11-29T02:06:14.494Z,1.88
2022-11-29T02:08:43.791Z,1.33
2022-11-29T02:11:21.867Z,1.60
2022-11-29T02:13:54.426Z,1.75
2022-11-29T02:16:25.978Z,3.08
2022-11-29T02:19:02.728Z,1.58
2022-11-29T02:21:36.933Z,1.45
2022-11-29T02:24:23.160Z,1.88
2022-11-29T02:27:01.075Z,1.77
2022-11-29T02:29:44.255Z,1.60
2022-11-29T02:32:25.371Z,1.27
2022-11-29T02:34:55.740Z,2.20
2022-11-29T02:37:36.991Z,1.50
2022-11-29T02:40:24.136Z,1.50
2022-11-29T02:43:10.406Z,0.98
2022-11-29T02:45:43.527Z,1.75
2022-11-29T02:48:30.980Z,1.77
2022-11-29T02:51:02.061Z,1.40
2022-11-29T02:53:34.074Z,1.35
2022-11-29T02:56:07.061Z,1.15
2022-11-29T02:58:38.758Z,0.82
2022-11-29T03:01:11.155Z,1.00
2022-11-29T03:03:45.305Z,1.77
2022-11-29T03:06:17.063Z,0.95
2022-11-29T03:08:48.178Z,1.23
2022-11-29T03:11:21.296Z,1.55
2022-11-29T03:13:53.499Z,1.23
2022-11-29T03:16:30.681Z,1.85
2022-11-29T03:19:07.384Z,1.90
2022-11-29T03:21:41.830Z,1.38
2022-11-29T03:24:13.629Z,1.60
2022-11-29T03:26:43.778Z,1.65
2022-11-29T03:29:14.248Z,1.00
2022-11-29T03:31:46.420Z,1.73
2022-11-29T03:34:23.152Z,1.50
2022-11-29T03:36:56.591Z,1.27
2022-11-29T03:39:30.020Z,1.83
2022-11-29T03:42:00.802Z,1.35
2022-11-29T03:44:30.266Z,1.48
2022-11-29T03:47:00.317Z,1.33
2022-11-29T03:49:32.841Z,0.80
2022-11-29T03:52:02.940Z,1.17
2022-11-29T03:54:34.303Z,1.83
2022-11-29T03:57:03.034Z,0.95
2022-11-29T03:59:40.494Z,1.45
2022-11-29T04:02:35.633Z,1.35
2022-11-29T04:05:15.774Z,1.35
2022-11-29T04:07:51.635Z,1.73
2022-11-29T04:10:27.987Z,1.15
2022-11-29T04:13:26.018Z,1.23
2022-11-29T04:16:07.913Z,1.45
2022-11-29T04:18:49.460Z,1.10
2022-11-29T04:21:38.369Z,1.73
2022-11-29T04:24:30.754Z,1.52
2022-11-29T04:27:14.048Z,2.25
2022-11-29T04:30:02.289Z,0.98
2022-11-29T04:33:05.410Z,0.90
2022-11-29T04:35:53.795Z,0.70
2022-11-29T04:38:40.724Z,1.25
2022-11-29T04:41:17.376Z,1.35
2022-11-29T04:43:56.317Z,0.93
2022-11-29T04:46:39.485Z,1.77
2022-11-29T04:49:27.384Z,1.02
2022-11-29T04:52:00.703Z,1.17
2022-11-29T04:54:34.401Z,1.00
2022-11-29T04:57:06.555Z,0.73
2022-11-29T04:59:41.030Z,1.05
2022-11-29T05:02:12.705Z,1.05
2022-11-29T05:04:48.593Z,1.40
2022-11-29T05:07:21.649Z,0.95
2022-11-29T05:09:58.942Z,0.80
2022-11-29T05:12:31.382Z,1.13
2022-11-29T05:15:06.962Z,1.10
2022-11-29T05:17:39.687Z,0.98
2022-11-29T05:20:16.919Z,0.52
2022-11-29T05:22:50.738Z,0.68
2022-11-29T05:25:34.176Z,1.48
2022-11-29T05:28:10.057Z,1.33
2022-11-29T05:30:49.465Z,1.15
2022-11-29T05:33:25.062Z,0.95
2022-11-29T05:35:54.561Z,0.68
2022-11-29T05:38:33.697Z,1.75
2022-11-29T05:41:11.081Z,1.15
2022-11-29T05:43:46.641Z,0.85
2022-11-29T05:46:18.744Z,0.70
2022-11-29T05:48:50.171Z,0.70
2022-11-29T05:51:22.925Z,0.65
2022-11-29T05:53:56.881Z,0.98
2022-11-29T05:56:28.535Z,1.13
2022-11-29T05:59:00.158Z,0.63
2022-11-29T06:01:31.770Z,0.85
2022-11-29T06:04:01.925Z,1.13
2022-11-29T06:06:33.141Z,0.95
2022-11-29T06:09:05.917Z,0.65
2022-11-29T06:11:38.128Z,1.25
2022-11-29T06:14:10.791Z,0.65
2022-11-29T06:16:57.282Z,0.50
2022-11-29T06:19:41.247Z,0.50
2022-11-29T06:22:20.940Z,0.60
2022-11-29T06:24:58.386Z,0.55
2022-11-29T06:27:36.411Z,0.95
2022-11-29T06:30:09.251Z,0.90
2022-11-29T06:32:41.896Z,0.95
2022-11-29T06:35:11.765Z,1.08
2022-11-29T06:37:41.083Z,0.50
2022-11-29T06:40:12.161Z,1.30
2022-11-29T06:42:41.830Z,1.25
2022-11-29T06:45:12.383Z,0.88
2022-11-29T06:47:44.315Z,1.30
2022-11-29T06:50:21.193Z,0.57
2022-11-29T06:52:54.742Z,1.00
2022-11-29T06:55:26.371Z,0.98
2022-11-29T06:58:03.297Z,1.02
2022-11-29T07:00:39.144Z,0.60
2022-11-29T07:03:22.325Z,0.50
2022-11-29T07:05:51.020Z,1.23
2022-11-29T07:08:20.121Z,0.88
2022-11-29T07:10:49.958Z,1.00
2022-11-29T07:13:20.150Z,1.48
2022-11-29T07:15:53.245Z,0.95
2022-11-29T07:18:26.677Z,0.63
2022-11-29T07:20:59.393Z,1.05
2022-11-29T07:23:33.342Z,1.05
2022-11-29T07:26:10.421Z,0.83
2022-11-29T07:28:45.540Z,1.70
2022-11-29T07:31:16.529Z,1.05
2022-11-29T07:33:51.254Z,1.52
2022-11-29T07:36:23.943Z,0.80
2022-11-29T07:38:57.476Z,0.90
2022-11-29T07:41:29.413Z,1.67
2022-11-29T07:44:03.685Z,0.75
2022-11-29T07:46:32.129Z,1.15
2022-11-29T07:49:00.515Z,1.08
2022-11-29T07:51:28.820Z,1.05
2022-11-29T07:53:57.162Z,0.80
2022-11-29T07:56:25.542Z,2.17
2022-11-29T07:58:53.949Z,0.90
2022-11-29T08:01:23.759Z,0.95
2022-11-29T08:03:52.129Z,0.80
2022-11-29T08:06:25.668Z,2.10
2022-11-29T08:08:53.978Z,2.28
2022-11-29T08:11:22.299Z,1.05
2022-11-29T08:13:50.694Z,1.58
2022-11-29T08:16:19.481Z,1.17
2022-11-29T08:18:49.473Z,2.47
2022-11-29T08:21:18.353Z,1.73
2022-11-29T08:23:46.945Z,2.13
2022-11-29T08:26:15.709Z,0.93
2022-11-29T08:28:44.091Z,1.25
2022-11-29T08:31:13.263Z,1.88
2022-11-29T08:33:43.199Z,2.85
2022-11-29T08:36:14.576Z,1.65
2022-11-29T08:38:42.967Z,1.27
2022-11-29T08:41:12.753Z,2.00
2022-11-29T08:43:41.300Z,2.95
2022-11-29T08:46:12.492Z,1.15
2022-11-29T08:48:45.437Z,1.40
2022-11-29T08:51:15.815Z,1.65
2022-11-29T08:53:43.873Z,1.17
2022-11-29T08:56:53.362Z,1.80
2022-11-29T08:59:02.065Z,2.50
2022-11-29T09:01:30.857Z,1.88
2022-11-29T09:04:03.696Z,1.88
2022-11-29T09:06:34.734Z,1.45
2022-11-29T09:09:03.340Z,1.83
2022-11-29T09:11:34.652Z,1.85
2022-11-29T09:14:03.894Z,1.20
2022-11-29T09:16:34.728Z,1.38
2022-11-29T09:19:03.258Z,1.35
2022-11-29T09:21:34.861Z,1.67
2022-11-29T09:24:06.237Z,1.23
2022-11-29T09:26:35.784Z,2.85
2022-11-29T09:29:05.490Z,1.02
2022-11-29T09:31:34.493Z,1.50
2022-11-29T09:34:03.332Z,0.90
2022-11-29T09:36:33.227Z,1.38
2022-11-29T09:39:03.807Z,1.05
2022-11-29T09:41:45.567Z,1.10
2022-11-29T09:44:19.461Z,1.63
2022-11-29T09:46:58.623Z,1.30
2022-11-29T09:49:44.503Z,1.67
2022-11-29T09:52:17.744Z,1.50
2022-11-29T09:54:52.536Z,1.23
2022-11-29T09:57:21.982Z,1.67
2022-11-29T09:59:51.625Z,1.00
2022-11-29T10:02:22.948Z,1.90
2022-11-29T10:04:54.062Z,1.48
2022-11-29T10:07:27.237Z,1.70
2022-11-29T10:09:58.206Z,2.08
2022-11-29T10:12:32.348Z,1.30
2022-11-29T10:15:04.336Z,1.23
2022-11-29T10:17:35.278Z,1.00
2022-11-29T10:20:06.485Z,0.70
2022-11-29T10:22:40.883Z,0.73
2022-11-29T10:25:11.564Z,1.25
2022-11-29T10:27:41.494Z,0.45
2022-11-29T10:30:15.321Z,0.93
2022-11-29T10:32:44.385Z,1.00
2022-11-29T10:35:17.959Z,0.47
2022-11-29T10:38:07.861Z,0.65
2022-11-29T10:40:37.873Z,1.23
2022-11-29T10:43:06.664Z,1.00
2022-11-29T10:45:37.624Z,1.55
2022-11-29T10:48:07.345Z,1.25
2022-11-29T10:50:36.703Z,0.68
2022-11-29T10:53:08.087Z,0.75
2022-11-29T10:55:38.690Z,0.93
2022-11-29T10:58:15.627Z,1.17
2022-11-29T11:00:45.307Z,1.05
2022-11-29T11:03:18.379Z,0.65
2022-11-29T11:05:58.099Z,0.50
2022-11-29T11:08:28.137Z,1.52
2022-11-29T11:11:01.788Z,1.05
2022-11-29T11:13:31.503Z,1.00
2022-11-29T11:16:00.922Z,0.68
2022-11-29T11:18:30.933Z,0.90
2022-11-29T11:21:01.968Z,1.17
2022-11-29T11:23:33.314Z,0.75
2022-11-29T11:26:04.170Z,1.33
2022-11-29T11:28:33.614Z,0.82
2022-11-29T11:31:03.648Z,0.73
2022-11-29T11:33:32.820Z,0.50
2022-11-29T11:36:03.009Z,0.95
2022-11-29T11:38:33.255Z,0.90
2022-11-29T11:41:14.838Z,0.75
2022-11-29T11:43:43.225Z,1.13
2022-11-29T11:46:16.553Z,0.80
2022-11-29T11:48:46.877Z,0.50
2022-11-29T11:51:23.169Z,1.58
2022-11-29T11:53:54.572Z,0.57
2022-11-29T11:56:23.748Z,0.60
2022-11-29T11:58:54.005Z,1.20
2022-11-29T12:01:27.256Z,0.68
2022-11-29T12:03:58.934Z,0.93
2022-11-29T12:06:30.755Z,0.52
2022-11-29T12:09:05.009Z,0.88
2022-11-29T12:11:35.992Z,1.05
2022-11-29T12:14:06.120Z,0.80
2022-11-29T12:16:36.917Z,1.00
2022-11-29T12:19:09.220Z,1.05
2022-11-29T12:21:40.890Z,0.90
2022-11-29T12:24:17.162Z,0.95
2022-11-29T12:27:01.063Z,0.60
2022-11-29T12:29:31.274Z,0.70
2022-11-29T12:32:03.682Z,0.73
2022-11-29T12:34:44.674Z,0.70
2022-11-29T12:37:17.945Z,0.65
2022-11-29T12:39:56.920Z,0.52
2022-11-29T12:42:32.481Z,0.98
2022-11-29T12:45:04.301Z,0.50
2022-11-29T12:47:44.409Z,0.80
2022-11-29T12:50:24.022Z,0.90
2022-11-29T12:52:58.285Z,1.33
2022-11-29T12:55:30.620Z,1.38
2022-11-29T12:58:02.741Z,0.60
2022-11-29T13:00:34.695Z,0.60
2022-11-29T13:03:07.053Z,1.33
2022-11-29T13:05:53.360Z,1.23
2022-11-29T13:08:27.217Z,1.27
2022-11-29T13:11:01.714Z,1.48
2022-11-29T13:13:32.808Z,1.20
2022-11-29T13:16:05.398Z,1.40
2022-11-29T13:18:38.173Z,0.60
2022-11-29T13:21:11.263Z,1.20
2022-11-29T13:24:07.970Z,1.10
2022-11-29T13:26:33.632Z,1.05
2022-11-29T13:29:03.015Z,1.25
2022-11-29T13:31:33.146Z,0.82
2022-11-29T13:34:04.334Z,1.23
2022-11-29T13:36:39.617Z,0.98
2022-11-29T13:39:13.424Z,1.55
2022-11-29T13:41:48.394Z,0.80
2022-11-29T13:46:48.523Z,1.35
2022-11-29T13:49:22.291Z,1.42
2022-11-29T13:51:51.095Z,0.95
2022-11-29T13:54:30.529Z,1.20
2022-11-29T13:57:07.158Z,1.35
2022-11-29T13:59:36.543Z,1.05
2022-11-29T14:02:05.786Z,1.52
2022-11-29T14:04:36.694Z,1.33
2022-11-29T14:07:09.894Z,3.05
2022-11-29T14:09:42.904Z,3.25
2022-11-29T14:12:23.836Z,2.30
2022-11-29T14:14:54.038Z,3.10
2022-11-29T14:17:36.517Z,2.90
2022-11-29T14:20:32.434Z,2.22
2022-11-29T14:23:16.049Z,1.08
2022-11-29T14:25:52.553Z,1.77
2022-11-29T14:28:32.465Z,1.65
2022-11-29T14:31:01.888Z,1.58
2022-11-29T14:33:49.291Z,1.20
2022-11-29T14:36:28.100Z,1.27
2022-11-29T14:39:04.464Z,1.88
2022-11-29T14:41:41.462Z,1.45
2022-11-29T14:44:18.999Z,1.63
2022-11-29T14:46:47.829Z,1.05
2022-11-29T14:49:23.942Z,2.00
2022-11-29T14:52:12.424Z,1.33
2022-11-29T14:54:54.538Z,1.95
2022-11-29T14:57:41.919Z,1.85
2022-11-29T15:00:13.769Z,1.85
2022-11-29T15:02:44.148Z,2.25
2022-11-29T15:05:19.475Z,1.98
2022-11-29T15:07:52.270Z,2.38
2022-11-29T15:10:23.303Z,1.50
2022-11-29T15:12:52.139Z,2.17
2022-11-29T15:15:33.201Z,1.20
2022-11-29T15:18:05.464Z,2.50
2022-11-29T15:20:38.650Z,2.55
2022-11-29T15:23:08.373Z,2.75
2022-11-29T15:25:36.953Z,1.85
2022-11-29T15:28:06.853Z,1.63
2022-11-29T15:30:37.245Z,1.52
2022-11-29T15:33:07.925Z,1.67
2022-11-29T15:35:36.965Z,2.50
2022-11-29T15:38:05.588Z,2.67
2022-11-29T15:40:37.302Z,2.90
2022-11-29T15:43:15.118Z,1.60
2022-11-29T15:45:48.633Z,3.17
2022-11-29T15:48:21.658Z,1.95
2022-11-29T15:50:55.611Z,3.42
2022-11-29T15:53:27.805Z,1.87
2022-11-29T15:55:57.449Z,2.72
2022-11-29T15:58:26.423Z,3.63
2022-11-29T16:00:56.490Z,2.78
2022-11-29T16:03:27.098Z,2.90
2022-11-29T16:06:00.121Z,3.90
2022-11-29T16:08:30.629Z,2.92
2022-11-29T16:11:00.479Z,3.55
2022-11-29T16:13:35.729Z,2.95
2022-11-29T16:16:08.462Z,2.72
2022-11-29T16:18:37.143Z,2.58
2022-11-29T16:21:07.614Z,4.68
2022-11-29T16:23:36.876Z,2.80
2022-11-29T16:26:09.549Z,2.95
2022-11-29T16:28:38.956Z,3.08
2022-11-29T16:31:12.475Z,3.45
2022-11-29T16:33:45.002Z,2.33
2022-11-29T16:36:15.724Z,2.78
2022-11-29T16:38:48.531Z,2.70
2022-11-29T16:41:23.948Z,2.90
2022-11-29T16:43:55.607Z,3.42
2022-11-29T16:46:35.387Z,2.28
2022-11-29T16:49:05.310Z,2.67
2022-11-29T16:51:42.133Z,5.10
2022-11-29T16:54:23.950Z,2.45
2022-11-29T16:56:53.121Z,3.97
2022-11-29T16:59:27.215Z,3.88
2022-11-29T17:04:26.006Z,3.50
2022-11-29T17:06:55.097Z,3.83
2022-11-29T17:09:24.967Z,2.85
2022-11-29T17:11:53.865Z,3.90
2022-11-29T17:14:22.500Z,3.35
2022-11-29T17:16:51.954Z,3.90
2022-11-29T17:19:24.138Z,3.60
2022-11-29T17:21:54.198Z,4.57
2022-11-29T17:24:23.416Z,3.25
2022-11-29T17:26:52.412Z,3.33
2022-11-29T17:29:20.924Z,5.47
2022-11-29T17:31:50.477Z,2.25
2022-11-29T17:34:19.385Z,4.28
2022-11-29T17:36:47.767Z,3.00
2022-11-29T17:39:20.132Z,3.40
2022-11-29T17:41:48.711Z,4.20
2022-11-29T17:44:17.030Z,3.85
2022-11-29T17:46:45.495Z,4.00
2022-11-29T17:49:14.005Z,3.55
2022-11-29T17:51:51.794Z,2.67
2022-11-29T17:54:22.459Z,4.07
2022-11-29T17:56:50.917Z,3.35
2022-11-29T17:59:19.555Z,3.67
2022-11-29T18:01:48.245Z,4.78
2022-11-29T18:04:17.002Z,3.55
2022-11-29T18:06:49.700Z,2.88
2022-11-29T18:09:19.783Z,2.88
2022-11-29T18:11:50.686Z,3.03
2022-11-29T18:14:20.415Z,5.10
2022-11-29T18:16:49.100Z,2.67
2022-11-29T18:19:18.397Z,3.10
2022-11-29T18:21:46.924Z,3.15
2022-11-29T18:24:15.390Z,4.20
2022-11-29T18:26:44.070Z,2.78
2022-11-29T18:29:13.975Z,3.33
2022-11-29T18:31:43.454Z,3.28
2022-11-29T18:34:13.084Z,3.40
2022-11-29T18:36:43.879Z,3.35
2022-11-29T18:39:13.905Z,4.10
2022-11-29T18:41:43.603Z,3.25
2022-11-29T18:44:13.060Z,3.55
2022-11-29T18:46:43.995Z,3.90
2022-11-29T18:49:13.373Z,3.03
2022-11-29T18:51:42.959Z,2.47
2022-11-29T18:54:11.329Z,2.65
2022-11-29T18:56:39.822Z,2.58
2022-11-29T18:59:10.217Z,3.15
2022-11-29T19:01:41.238Z,3.15
2022-11-29T19:04:12.075Z,3.75
2022-11-29T19:06:40.524Z,3.55
2022-11-29T19:09:10.468Z,4.20
2022-11-29T19:11:39.056Z,3.05
2022-11-29T19:14:11.540Z,3.35
2022-11-29T19:16:41.662Z,3.08
2022-11-29T19:19:11.720Z,3.78
2022-11-29T19:21:40.889Z,2.58
2022-11-29T19:24:14.102Z,3.03
2022-11-29T19:26:44.575Z,3.30
2022-11-29T19:29:13.269Z,2.38
2022-11-29T19:31:42.357Z,2.50
2022-11-29T19:34:12.354Z,3.25
2022-11-29T19:36:43.329Z,2.63
2022-11-29T19:39:13.306Z,4.53
2022-11-29T19:41:43.257Z,2.47
2022-11-29T19:44:12.255Z,3.00
2022-11-29T19:46:42.150Z,1.92
2022-11-29T19:49:12.463Z,2.38
2022-11-29T19:51:40.838Z,2.15
2022-11-29T19:54:10.531Z,4.22
2022-11-29T19:56:39.316Z,2.92
2022-11-29T19:59:08.925Z,4.10
2022-11-29T20:01:42.696Z,2.15
2022-11-29T20:04:16.435Z,4.07
2022-11-29T20:06:45.473Z,3.45
2022-11-29T20:09:14.547Z,2.80
2022-11-29T20:11:42.930Z,2.33
2022-11-29T20:14:12.531Z,2.85
2022-11-29T20:16:41.101Z,3.55
2022-11-29T20:19:10.792Z,3.05
2022-11-29T20:21:42.487Z,2.10
2022-11-29T20:24:11.421Z,1.90
2022-11-29T20:26:40.880Z,3.80
2022-11-29T20:29:09.787Z,2.17
2022-11-29T20:31:43.065Z,2.08
2022-11-29T20:34:15.136Z,3.35
2022-11-29T20:36:49.253Z,3.53
2022-11-29T20:39:23.692Z,3.53
2022-11-29T20:41:58.631Z,3.47
2022-11-29T20:46:55.665Z,2.08
2022-11-29T20:49:24.326Z,2.95
2022-11-29T20:51:57.236Z,2.08
2022-11-29T20:54:25.572Z,1.65
2022-11-29T20:56:53.890Z,2.22
2022-11-29T20:59:22.333Z,2.60
2022-11-29T21:01:50.960Z,2.83
2022-11-29T21:04:23.340Z,2.65
2022-11-29T21:06:52.200Z,1.45
2022-11-29T21:09:21.933Z,2.83
2022-11-29T21:11:50.805Z,2.60
2022-11-29T21:14:19.508Z,3.55
2022-11-29T21:16:48.079Z,2.70
2022-11-29T21:19:19.521Z,2.80
2022-11-29T21:21:54.474Z,3.92
2022-11-29T21:26:53.547Z,3.65
2022-11-29T21:29:22.630Z,3.70
2022-11-29T21:31:52.510Z,3.47
2022-11-29T21:34:20.956Z,2.17
2022-11-29T21:36:50.480Z,3.15
2022-11-29T21:39:18.977Z,3.78
2022-11-29T21:41:47.648Z,3.03
2022-11-29T21:44:17.396Z,1.77
2022-11-29T21:46:45.904Z,2.85
2022-11-29T21:49:14.579Z,2.22
2022-11-29T21:51:43.516Z,2.28
2022-11-29T21:54:12.438Z,3.20
2022-11-29T21:56:41.006Z,2.40
2022-11-29T21:59:09.841Z,3.38
2022-11-29T22:01:39.619Z,2.25
2022-11-29T22:04:08.310Z,2.13
2022-11-29T22:06:37.169Z,3.05
2022-11-29T22:09:07.694Z,4.15
2022-11-29T22:11:35.995Z,3.38
2022-11-29T22:14:18.361Z,2.40
2022-11-29T22:16:49.626Z,4.18
2022-11-29T22:19:18.721Z,3.10
2022-11-29T22:21:47.853Z,4.57
2022-11-29T22:24:17.211Z,2.22
2022-11-29T22:26:45.587Z,3.97
2022-11-29T22:29:14.735Z,2.80
2022-11-29T22:31:43.084Z,2.17
2022-11-29T22:34:13.233Z,3.17
2022-11-29T22:36:41.983Z,2.67
2022-11-29T22:39:10.589Z,3.50
2022-11-29T22:41:39.518Z,2.97
2022-11-29T22:44:08.145Z,4.32
2022-11-29T22:46:36.660Z,3.67
2022-11-29T22:49:05.070Z,3.72
2022-11-29T22:51:35.828Z,3.60
2022-11-29T22:54:05.215Z,2.65
2022-11-29T22:56:34.432Z,4.05
2022-11-29T22:59:02.919Z,1.45
2022-11-29T23:01:31.856Z,4.03
2022-11-29T23:04:01.228Z,3.00
2022-11-29T23:06:30.305Z,3.30
2022-11-29T23:09:01.332Z,4.10
2022-11-29T23:11:30.296Z,2.30
2022-11-29T23:13:58.641Z,3.08
2022-11-29T23:16:27.902Z,3.63
2022-11-29T23:18:58.122Z,3.70
2022-11-29T23:21:27.703Z,2.30
2022-11-29T23:23:56.946Z,3.10
2022-11-29T23:26:27.409Z,2.70
2022-11-29T23:28:56.228Z,1.65
2022-11-29T23:31:25.207Z,2.85
2022-11-29T23:33:53.712Z,1.83
2022-11-29T23:36:22.104Z,2.78
2022-11-29T23:38:50.591Z,2.00
2022-11-29T23:41:19.432Z,2.20
2022-11-29T23:43:49.107Z,2.42
2022-11-29T23:46:18.947Z,3.10
2022-11-29T23:48:47.690Z,2.22
2022-11-29T23:51:16.295Z,3.80
2022-11-29T23:53:44.587Z,2.55
2022-11-29T23:56:14.411Z,2.10
2022-11-29T23:58:42.744Z,2.40
